Time;durP1;ratioP1;P1;durP2;ratioP2;P2;SDS_P1;SDS_P2;PMS_P1;PMS_P2;Temp;Humidity;BMP_temperature;BMP_pressure;BME280_temperature;BME280_humidity;BME280_pressure;Samples;Min_cycle;Max_cycle;Signal;HPM_P1;HPM_P2
2021/08/20 00:00:24;;;;;;;16.13;5.28;;;;;;;18.31;71.17;99394.03;5050707;28;20123;-65
2021/08/20 00:02:51;;;;;;;9.88;4.40;;;;;;;18.37;70.80;99409.56;5030289;28;20036;-64
2021/08/20 00:05:16;;;;;;;9.75;5.45;;;;;;;18.35;72.54;99428.19;5029208;28;20040;-64
2021/08/20 00:07:42;;;;;;;12.90;5.07;;;;;;;18.12;73.59;99404.91;5047992;28;20041;-63
2021/08/20 00:10:09;;;;;;;15.05;5.55;;;;;;;18.10;73.39;99431.47;5049990;28;20041;-65
2021/08/20 00:12:35;;;;;;;12.88;5.25;;;;;;;18.00;75.17;99421.53;5042049;28;20047;-65
2021/08/20 00:15:02;;;;;;;13.45;5.70;;;;;;;17.95;75.80;99439.47;5047550;28;20144;-68
2021/08/20 00:17:28;;;;;;;15.77;5.78;;;;;;;17.90;75.97;99442.41;5049569;28;20199;-65
2021/08/20 00:20:13;;;;;;;13.57;5.03;;;;;;;17.87;74.95;99437.28;5034692;28;20131;-63
2021/08/20 00:22:39;;;;;;;17.30;5.45;;;;;;;17.87;75.66;99437.28;5049857;28;20037;-64
2021/08/20 00:25:05;;;;;;;11.45;5.05;;;;;;;17.90;75.51;99442.41;5049444;28;20048;-64
2021/08/20 00:27:31;;;;;;;14.32;5.82;;;;;;;18.00;75.05;99448.84;5030651;28;20098;-64
2021/08/20 00:29:56;;;;;;;19.23;6.13;;;;;;;17.97;75.29;99442.88;5046043;28;20448;-63
2021/08/20 00:32:22;;;;;;;12.57;5.22;;;;;;;17.92;75.06;99431.72;5014802;28;20051;-63
2021/08/20 00:34:48;;;;;;;21.65;5.50;;;;;;;17.99;74.56;99446.28;5029296;28;20048;-63
2021/08/20 00:37:14;;;;;;;21.77;5.93;;;;;;;17.99;75.13;99455.09;5046651;28;20041;-64
2021/08/20 00:39:41;;;;;;;17.02;5.72;;;;;;;17.92;75.17;99445.81;5048022;28;20395;-63
2021/08/20 00:42:07;;;;;;;14.45;5.85;;;;;;;17.82;75.63;99439.31;5045805;28;20414;-64
2021/08/20 00:44:33;;;;;;;17.38;5.43;;;;;;;17.92;75.98;99447.59;5048150;28;20045;-64
2021/08/20 00:46:59;;;;;;;12.50;5.57;;;;;;;17.84;76.42;99442.75;5049505;28;20123;-65
2021/08/20 00:49:25;;;;;;;16.15;6.30;;;;;;;17.76;75.78;99439.69;5029459;28;20037;-64
2021/08/20 00:51:51;;;;;;;11.85;5.25;;;;;;;17.84;75.11;99447.19;5048776;28;20044;-63
2021/08/20 00:54:18;;;;;;;12.23;4.95;;;;;;;17.81;74.61;99434.97;5050921;28;20044;-63
2021/08/20 00:56:45;;;;;;;20.25;5.35;;;;;;;17.87;74.48;99447.03;5012048;28;20049;-63
2021/08/20 00:59:15;;;;;;;16.27;5.60;;;;;;;17.92;74.77;99440.50;5016498;28;20560;-62
2021/08/20 01:01:41;;;;;;;11.75;5.13;;;;;;;17.78;74.22;99427.22;5047209;28;20045;-66
2021/08/20 01:04:07;;;;;;;17.15;5.53;;;;;;;17.83;76.64;99446.31;5050477;28;20114;-62
2021/08/20 01:06:37;;;;;;;16.85;6.28;;;;;;;17.61;77.04;99445.81;5015862;28;20037;-62
2021/08/20 01:09:04;;;;;;;12.68;6.22;;;;;;;17.53;77.63;99469.22;5032480;28;20098;-64
2021/08/20 01:11:30;;;;;;;12.93;6.38;;;;;;;17.44;78.34;99473.25;5033259;28;20049;-64
2021/08/20 01:13:55;;;;;;;18.35;7.32;;;;;;;17.28;78.02;99448.59;5047083;28;20055;-62
2021/08/20 01:16:21;;;;;;;15.07;7.15;;;;;;;17.33;78.77;99452.69;5049385;28;20110;-63
2021/08/20 01:18:50;;;;;;;19.58;6.90;;;;;;;17.41;78.55;99455.75;5032603;28;20068;-63
2021/08/20 01:21:19;;;;;;;15.50;6.30;;;;;;;17.30;77.93;99431.72;5050894;28;20126;-65
2021/08/20 01:23:47;;;;;;;14.27;6.20;;;;;;;17.41;78.40;99468.13;5050782;28;20052;-62
2021/08/20 01:26:14;;;;;;;18.17;6.53;;;;;;;17.37;78.50;99461.31;5016417;28;20395;-63
2021/08/20 01:28:41;;;;;;;14.27;6.78;;;;;;;17.33;78.31;99471.19;5046447;28;20041;-63
2021/08/20 01:31:11;;;;;;;15.45;6.78;;;;;;;17.29;78.53;99482.88;5047916;28;20048;-62
2021/08/20 01:33:39;;;;;;;17.08;7.25;;;;;;;17.27;78.88;99476.84;5046646;28;20063;-64
2021/08/20 01:36:08;;;;;;;14.38;6.28;;;;;;;17.20;79.05;99467.53;5011616;28;20045;-64
2021/08/20 01:38:51;;;;;;;17.23;7.00;;;;;;;17.28;78.76;99483.81;5023842;28;20056;-64
2021/08/20 01:41:18;;;;;;;21.13;6.93;;;;;;;17.23;78.86;99480.59;5028633;28;20574;-64
2021/08/20 01:43:44;;;;;;;16.40;6.63;;;;;;;17.11;78.52;99460.97;5013850;28;20041;-64
2021/08/20 01:46:11;;;;;;;15.20;7.05;;;;;;;17.17;77.45;99478.28;5050446;28;20041;-62
2021/08/20 01:48:46;;;;;;;15.70;6.68;;;;;;;17.21;79.02;99474.53;5032543;28;20041;-64
2021/08/20 01:51:13;;;;;;;15.02;6.75;;;;;;;17.29;78.68;99488.19;5045383;28;20029;-64
2021/08/20 01:53:40;;;;;;;11.95;6.80;;;;;;;17.38;78.41;99471.78;5017811;28;20072;-63
2021/08/20 01:56:06;;;;;;;11.27;5.85;;;;;;;17.69;76.98;99480.66;5051617;28;20056;-62
2021/08/20 01:58:32;;;;;;;15.55;6.68;;;;;;;17.69;76.67;99464.78;5050370;28;20090;-63
2021/08/20 02:00:57;;;;;;;23.42;7.28;;;;;;;17.77;77.13;99481.06;5031440;28;20045;-63
2021/08/20 02:03:24;;;;;;;19.65;6.38;;;;;;;18.15;75.88;99476.19;5047463;28;20480;-64
2021/08/20 02:05:50;;;;;;;13.10;6.32;;;;;;;18.51;73.50;99478.41;5047328;28;20047;-64
2021/08/20 02:08:17;;;;;;;15.60;6.03;;;;;;;18.76;72.58;99482.28;5034304;28;20328;-62
2021/08/20 02:10:46;;;;;;;19.83;7.10;;;;;;;19.29;70.38;99485.03;5046905;28;20049;-63
2021/08/20 02:13:12;;;;;;;11.00;5.55;;;;;;;19.78;68.22;99476.59;5047382;28;20041;-64
2021/08/20 02:15:38;;;;;;;28.48;7.25;;;;;;;19.66;68.76;99483.56;5049403;28;20071;-63
2021/08/20 02:18:07;;;;;;;14.57;6.20;;;;;;;19.68;68.58;99480.81;5015688;28;20037;-65
2021/08/20 02:20:32;;;;;;;13.98;6.75;;;;;;;19.52;69.30;99472.13;5051863;28;20041;-62
2021/08/20 02:23:04;;;;;;;17.58;5.82;;;;;;;19.80;68.16;99476.50;5014818;28;20085;-63
2021/08/20 02:25:30;;;;;;;17.25;6.45;;;;;;;19.82;68.08;99475.44;5047118;28;20099;-63
2021/08/20 02:27:57;;;;;;;12.23;6.55;;;;;;;19.62;68.45;99449.38;5048969;28;20420;-63
2021/08/20 02:30:23;;;;;;;20.85;6.78;;;;;;;19.67;68.49;99468.50;5041319;28;20196;-64
2021/08/20 02:32:51;;;;;;;11.50;7.03;;;;;;;19.51;68.16;99471.28;5048571;28;20059;-63
2021/08/20 02:35:17;;;;;;;16.05;7.53;;;;;;;19.13;69.54;99459.59;5051558;28;20508;-64
2021/08/20 02:37:43;;;;;;;13.13;7.05;;;;;;;19.65;67.81;99455.31;5050752;28;20041;-62
2021/08/20 02:40:11;;;;;;;19.50;7.00;;;;;;;19.74;67.51;99472.44;5017421;28;20072;-62
2021/08/20 02:42:45;;;;;;;12.95;6.82;;;;;;;19.96;67.08;99464.75;5049986;28;20540;-62
2021/08/20 02:45:11;;;;;;;15.68;7.15;;;;;;;19.62;68.15;99463.50;5050955;28;20040;-63
2021/08/20 02:47:37;;;;;;;15.20;7.43;;;;;;;19.55;68.21;99469.31;5048248;28;20590;-64
2021/08/20 02:50:04;;;;;;;16.23;8.35;;;;;;;19.57;68.13;99472.69;5032877;28;20037;-62
2021/08/20 02:52:30;;;;;;;30.15;7.55;;;;;;;19.59;67.44;99454.88;5047746;28;20048;-64
2021/08/20 02:54:56;;;;;;;13.52;7.70;;;;;;;19.88;66.98;99475.03;5050262;28;20521;-64
2021/08/20 02:57:28;;;;;;;14.48;7.70;;;;;;;19.64;67.96;99463.38;5032167;28;20041;-62
2021/08/20 02:59:56;;;;;;;19.30;9.02;;;;;;;19.57;68.31;99460.28;5029287;28;20110;-65
2021/08/20 03:02:22;;;;;;;15.77;6.80;;;;;;;20.19;65.86;99454.41;5049566;28;20045;-64
2021/08/20 03:04:48;;;;;;;15.52;8.00;;;;;;;20.71;63.86;99458.78;5047930;28;20074;-65
2021/08/20 03:07:35;;;;;;;14.50;7.72;;;;;;;21.00;63.64;99473.53;5021555;28;20052;-65
2021/08/20 03:10:03;;;;;;;15.88;7.72;;;;;;;21.11;63.36;99478.94;5048931;28;20036;-66
2021/08/20 03:12:30;;;;;;;23.67;8.30;;;;;;;21.19;62.77;99468.59;5049202;28;20127;-66
2021/08/20 03:14:55;;;;;;;20.02;8.18;;;;;;;21.56;62.07;99477.47;5020024;28;20103;-64
2021/08/20 03:17:28;;;;;;;20.50;7.68;;;;;;;21.94;60.90;99488.88;5047495;28;20041;-62
2021/08/20 03:19:54;;;;;;;20.50;7.57;;;;;;;22.00;60.27;99477.78;5049732;28;20048;-64
2021/08/20 03:22:20;;;;;;;18.02;8.30;;;;;;;22.19;59.95;99478.09;5047149;28;20060;-64
2021/08/20 03:24:58;;;;;;;18.58;8.88;;;;;;;21.85;60.02;99472.63;5148984;27;20127;-62
2021/08/20 03:27:37;;;;;;;19.60;8.18;;;;;;;21.84;60.45;99470.94;5107268;27;20540;-66
2021/08/20 03:30:37;;;;;;;21.23;7.88;;;;;;;22.54;58.94;99477.22;5081997;28;20427;-62
2021/08/20 03:33:18;;;;;;;24.52;7.28;;;;;;;22.63;57.75;99461.38;5099482;27;20376;-63
2021/08/20 03:36:16;;;;;;;19.33;7.28;;;;;;;22.38;57.71;99480.25;5144833;27;20357;-65
2021/08/20 03:38:57;;;;;;;21.92;8.00;;;;;;;22.11;59.26;99476.03;5093473;27;20397;-63
2021/08/20 03:41:36;;;;;;;15.27;7.47;;;;;;;22.05;59.06;99489.81;5108804;27;20391;-64
2021/08/20 03:44:21;;;;;;;14.90;6.93;;;;;;;22.66;57.64;99486.94;5138433;27;20387;-64
2021/08/20 03:47:04;;;;;;;20.58;7.82;;;;;;;23.32;55.55;99498.63;5106311;27;20388;-62
2021/08/20 03:49:42;;;;;;;15.10;7.13;;;;;;;23.43;55.36;99496.78;5081900;27;20762;-63
2021/08/20 03:52:21;;;;;;;16.33;7.22;;;;;;;23.54;54.72;99503.91;5046808;28;20848;-63
2021/08/20 03:54:59;;;;;;;20.88;7.82;;;;;;;23.98;54.58;99502.13;5093725;27;20942;-65
2021/08/20 03:57:38;;;;;;;21.77;7.10;;;;;;;24.13;54.02;99508.84;5058765;28;20410;-63
2021/08/20 04:00:17;;;;;;;16.48;7.10;;;;;;;24.07;54.78;99493.31;5091774;27;20399;-63
2021/08/20 04:03:01;;;;;;;20.08;7.00;;;;;;;24.00;56.21;99500.16;5147941;27;20416;-64
2021/08/20 04:05:40;;;;;;;19.33;7.13;;;;;;;24.09;55.25;99512.75;5136087;27;20763;-64
2021/08/20 04:08:40;;;;;;;18.27;6.63;;;;;;;24.78;53.75;99491.72;5125905;27;20195;-64
2021/08/20 04:11:51;;;;;;;20.13;6.63;;;;;;;24.54;53.20;99489.34;5116789;27;21008;-64
2021/08/20 04:14:45;;;;;;;16.10;6.18;;;;;;;25.02;52.79;99500.31;5125312;27;20390;-62
2021/08/20 04:17:23;;;;;;;14.48;6.45;;;;;;;25.07;52.53;99507.94;5121894;27;20398;-65
2021/08/20 04:20:02;;;;;;;13.95;6.45;;;;;;;25.62;51.68;99492.31;5075663;27;20380;-63
2021/08/20 04:22:41;;;;;;;19.92;6.95;;;;;;;26.45;49.12;99488.28;5135357;27;20402;-65
2021/08/20 04:25:19;;;;;;;24.52;6.18;;;;;;;27.20;45.32;99503.47;5120436;27;20391;-63
2021/08/20 04:28:35;;;;;;;12.75;5.85;;;;;;;27.57;44.55;99505.28;5085901;27;1377447;-65
2021/08/20 04:31:34;;;;;;;15.10;5.97;;;;;;;27.74;42.43;99489.19;5091927;27;1448839;-66
2021/08/20 04:34:39;;;;;;;16.13;5.78;;;;;;;27.80;41.55;99498.50;5079530;28;20914;-63
2021/08/20 04:37:32;;;;;;;12.82;5.72;;;;;;;28.22;40.91;99489.78;5124089;27;20394;-64
2021/08/20 04:40:38;;;;;;;12.57;5.57;;;;;;;28.40;39.88;99501.41;5106729;27;20125;-62
2021/08/20 04:43:39;;;;;;;14.55;5.25;;;;;;;28.29;40.39;99480.16;5061517;28;20407;-68
2021/08/20 04:46:39;;;;;;;15.82;5.88;;;;;;;28.87;39.35;99483.06;5100193;27;20389;-64
2021/08/20 04:49:24;;;;;;;12.43;6.25;;;;;;;29.15;38.05;99483.75;5096803;27;20384;-64
2021/08/20 04:52:41;;;;;;;15.55;6.18;;;;;;;29.07;38.39;99497.16;5117645;27;20392;-64
2021/08/20 04:55:40;;;;;;;15.05;5.90;;;;;;;28.40;39.67;99487.97;5125180;27;20390;-64
2021/08/20 04:58:18;;;;;;;22.85;6.30;;;;;;;27.97;40.32;99491.44;5124703;27;20759;-65
2021/08/20 05:01:11;;;;;;;35.53;18.90;;;;;;;28.39;39.68;99478.22;5001155;28;20919;-69
2021/08/20 05:04:03;;;;;;;18.77;8.27;;;;;;;28.36;38.64;99483.91;5070568;27;20458;-63
2021/08/20 05:06:39;;;;;;;14.43;6.88;;;;;;;28.05;38.89;99483.44;4374413;27;21783909;-63
2021/08/20 05:09:42;;;;;;;16.00;5.78;;;;;;;27.39;40.00;99487.25;5117946;27;20425;-63
2021/08/20 05:12:38;;;;;;;10.50;5.85;;;;;;;26.95;40.98;99474.59;5083750;27;20451;-63
2021/08/20 05:15:31;;;;;;;9.10;5.28;;;;;;;26.75;41.02;99471.13;5012856;28;20424;-65
2021/08/20 05:18:23;;;;;;;9.65;5.38;;;;;;;26.25;42.13;99477.56;5108103;27;20581;-65
2021/08/20 05:21:13;;;;;;;18.10;5.40;;;;;;;26.08;42.86;99480.97;5110813;27;20437;-64
2021/08/20 05:24:01;;;;;;;12.50;5.15;;;;;;;25.77;42.62;99474.88;5117334;27;20348;-63
2021/08/20 05:26:57;;;;;;;9.38;5.00;;;;;;;25.79;42.27;99462.19;5147439;27;20348;-63
2021/08/20 05:29:48;;;;;;;9.75;5.40;;;;;;;26.86;40.03;99458.38;5086577;27;20396;-64
2021/08/20 05:32:26;;;;;;;10.35;5.70;;;;;;;28.21;37.41;99474.66;5167449;27;20170;-64
2021/08/20 05:35:07;;;;;;;8.32;4.70;;;;;;;29.05;35.52;99466.84;5167341;27;20115;-65
2021/08/20 05:37:44;;;;;;;13.15;4.90;;;;;;;29.44;34.77;99480.66;5147497;27;20884;-62
2021/08/20 05:40:22;;;;;;;15.38;4.90;;;;;;;29.37;34.96;99479.59;5065071;28;20371;-64
2021/08/20 05:43:01;;;;;;;9.40;4.50;;;;;;;28.76;35.17;99473.41;5127641;27;20374;-63
2021/08/20 05:45:38;;;;;;;9.35;4.80;;;;;;;27.78;37.16;99460.16;5104779;27;20908;-62
2021/08/20 05:48:16;;;;;;;9.25;4.50;;;;;;;27.46;37.88;99471.38;5082051;28;20505;-65
2021/08/20 05:50:54;;;;;;;9.02;4.60;;;;;;;27.26;38.80;99485.91;5139099;27;20883;-64
2021/08/20 05:53:33;;;;;;;8.23;4.20;;;;;;;27.06;38.68;99490.53;5065825;28;20895;-63
2021/08/20 05:56:11;;;;;;;11.82;4.50;;;;;;;27.14;38.29;99471.84;5119173;27;20782;-63
2021/08/20 05:59:01;;;;;;;10.10;4.72;;;;;;;28.50;35.40;99488.72;5158705;27;20127;-63
2021/08/20 06:01:40;;;;;;;8.75;4.35;;;;;;;29.34;33.66;99488.84;5105169;27;20117;-63
2021/08/20 06:04:20;;;;;;;8.77;4.55;;;;;;;29.61;32.88;99481.53;5105340;27;20526;-65
2021/08/20 06:06:59;;;;;;;10.35;4.15;;;;;;;30.41;32.41;99484.50;5166431;27;20832;-64
2021/08/20 06:09:40;;;;;;;10.55;4.65;;;;;;;30.67;31.25;99483.34;5066596;28;20390;-63
2021/08/20 06:12:18;;;;;;;10.32;4.60;;;;;;;31.04;30.49;99489.97;5106043;27;20380;-65
2021/08/20 06:14:56;;;;;;;10.80;4.13;;;;;;;31.97;29.19;99502.78;5144298;27;20378;-63
2021/08/20 06:17:35;;;;;;;6.50;4.28;;;;;;;31.89;28.89;99488.25;5105772;27;20376;-64
2021/08/20 06:20:13;;;;;;;6.45;4.18;;;;;;;31.82;29.13;99479.16;5100345;27;20807;-63
2021/08/20 06:22:51;;;;;;;6.72;4.15;;;;;;;32.05;28.44;99486.47;5105941;27;20730;-64
2021/08/20 06:28:25;;;;;;;8.20;4.38;;;;;;;32.60;27.14;99478.03;5105810;27;20868;-66
2021/08/20 06:31:04;;;;;;;9.38;4.20;;;;;;;32.26;27.33;99464.16;5104387;27;20376;-63
2021/08/20 06:33:42;;;;;;;10.80;3.88;;;;;;;32.85;26.08;99473.25;5086970;28;20921;-63
2021/08/20 06:36:20;;;;;;;8.95;3.88;;;;;;;32.86;26.18;99480.34;5089619;27;20385;-64
2021/08/20 06:38:58;;;;;;;11.57;4.63;;;;;;;33.26;25.97;99483.59;5104334;27;20900;-64
2021/08/20 06:41:36;;;;;;;9.93;4.05;;;;;;;32.99;25.93;99472.41;5081576;28;20379;-66
2021/08/20 06:44:16;;;;;;;11.98;4.28;;;;;;;33.14;26.02;99475.94;5098651;27;20387;-65
2021/08/20 06:46:53;;;;;;;13.48;5.07;;;;;;;33.37;25.82;99458.72;5095106;27;1538122;-64
2021/08/20 06:49:31;;;;;;;10.40;3.97;;;;;;;33.60;24.88;99459.44;5086465;27;20416;-65
2021/08/20 06:52:10;;;;;;;9.52;4.10;;;;;;;34.25;24.48;99469.31;5106617;27;20391;-63
2021/08/20 06:54:47;;;;;;;7.53;3.97;;;;;;;34.45;24.55;99468.66;5147046;27;20361;-64
2021/08/20 06:57:25;;;;;;;6.53;3.80;;;;;;;34.27;24.04;99455.53;5081216;28;20740;-63
2021/08/20 07:00:05;;;;;;;13.07;4.03;;;;;;;34.22;24.04;99456.13;5086890;27;20396;-66
2021/08/20 07:02:46;;;;;;;8.88;4.03;;;;;;;34.69;23.19;99470.91;5148221;27;20381;-65
2021/08/20 07:05:22;;;;;;;8.93;4.82;;;;;;;34.63;23.37;99461.66;5082728;27;1383698;-65
2021/08/20 07:08:01;;;;;;;10.60;4.18;;;;;;;35.12;22.72;99440.88;5105439;27;20387;-66
2021/08/20 07:10:37;;;;;;;13.07;4.30;;;;;;;35.34;22.72;99465.03;5054324;27;2169049;-66
2021/08/20 07:13:15;;;;;;;7.57;4.28;;;;;;;35.31;22.36;99459.16;5085163;27;20377;-70
2021/08/20 07:15:53;;;;;;;9.43;4.35;;;;;;;34.98;22.61;99437.25;5126623;27;20382;-64
2021/08/20 07:18:37;;;;;;;11.55;4.18;;;;;;;34.45;24.03;99457.78;5105355;27;20936;-64
2021/08/20 07:21:14;;;;;;;9.50;4.97;;;;;;;32.50;25.93;99445.81;5085085;27;20396;-67
2021/08/20 07:23:52;;;;;;;15.57;4.80;;;;;;;32.85;25.82;99451.56;5147247;27;20389;-65
2021/08/20 07:26:30;;;;;;;13.10;5.20;;;;;;;32.62;26.63;99457.03;5126605;27;20382;-65
2021/08/20 07:29:10;;;;;;;10.02;5.22;;;;;;;33.75;25.30;99460.22;5107499;27;20373;-64
2021/08/20 07:31:45;;;;;;;19.37;5.17;;;;;;;33.45;25.06;99451.34;5078657;27;2090496;-63
2021/08/20 07:34:23;;;;;;;13.98;5.30;;;;;;;34.02;24.72;99441.50;5100972;27;20719;-67
2021/08/20 07:37:02;;;;;;;16.45;5.38;;;;;;;34.69;23.59;99446.44;5106295;27;20715;-64
2021/08/20 07:39:38;;;;;;;21.60;6.82;;;;;;;34.31;24.44;99449.50;5103046;27;1351117;-63
2021/08/20 07:42:19;;;;;;;16.67;6.40;;;;;;;34.11;24.58;99445.75;5106260;27;20423;-63
2021/08/20 07:44:56;;;;;;;10.98;5.00;;;;;;;34.77;24.47;99443.56;5064574;28;20385;-67
2021/08/20 07:47:50;;;;;;;17.90;5.93;;;;;;;34.80;23.71;99437.72;5099039;27;20373;-63
2021/08/20 07:50:27;;;;;;;15.18;5.82;;;;;;;35.56;23.43;99441.25;5189463;27;20413;-64
2021/08/20 07:53:06;;;;;;;12.80;5.10;;;;;;;34.65;24.19;99450.59;5065343;28;20917;-64
2021/08/20 07:55:44;;;;;;;10.35;5.28;;;;;;;35.27;23.21;99447.00;5040409;28;20389;-64
2021/08/20 07:58:22;;;;;;;12.00;5.40;;;;;;;35.15;23.30;99441.31;5189422;27;20394;-65
2021/08/20 08:01:00;;;;;;;10.15;5.05;;;;;;;34.68;23.28;99450.19;5079542;28;21024;-63
2021/08/20 08:03:44;;;;;;;12.48;5.22;;;;;;;34.69;23.23;99454.59;5146003;27;20389;-63
2021/08/20 08:06:39;;;;;;;11.23;4.65;;;;;;;35.35;22.78;99441.41;5146552;27;20167;-64
2021/08/20 08:09:36;;;;;;;15.55;5.00;;;;;;;35.36;21.93;99445.81;5089937;27;20415;-64
2021/08/20 08:12:28;;;;;;;9.10;4.40;;;;;;;34.17;23.69;99452.28;5086179;27;20409;-65
2021/08/20 08:15:20;;;;;;;9.85;5.07;;;;;;;33.75;24.11;99446.66;5127152;27;20496;-65
2021/08/20 08:18:20;;;;;;;9.55;5.00;;;;;;;32.99;25.65;99447.19;5057948;27;20411;-64
2021/08/20 08:21:12;;;;;;;10.18;5.10;;;;;;;33.75;24.41;99430.38;5086158;27;20395;-65
2021/08/20 08:24:04;;;;;;;13.95;4.97;;;;;;;33.26;24.06;99434.78;5106979;27;20358;-63
2021/08/20 08:26:56;;;;;;;10.07;4.35;;;;;;;33.90;23.63;99430.34;5086527;27;21046;-64
2021/08/20 08:29:47;;;;;;;12.23;4.75;;;;;;;34.17;23.37;99450.41;5122357;27;20346;-65
2021/08/20 08:32:43;;;;;;;13.63;5.55;;;;;;;33.85;23.27;99442.81;5189111;27;20515;-66
2021/08/20 08:35:34;;;;;;;15.82;5.03;;;;;;;34.70;22.99;99424.50;5098288;27;20415;-64
2021/08/20 08:38:25;;;;;;;12.30;5.72;;;;;;;34.02;22.67;99438.78;5106255;27;20347;-65
2021/08/20 08:41:27;;;;;;;12.23;4.85;;;;;;;34.15;22.38;99424.47;5127152;27;20400;-66
2021/08/20 08:44:18;;;;;;;18.20;4.50;;;;;;;34.48;22.17;99438.38;5084301;27;20410;-65
2021/08/20 08:47:26;;;;;;;9.00;4.78;;;;;;;34.68;22.49;99442.88;5065918;28;20889;-64
2021/08/20 08:50:06;;;;;;;16.77;4.65;;;;;;;33.92;22.91;99446.44;5168952;27;20167;-63
2021/08/20 08:52:44;;;;;;;11.38;4.53;;;;;;;34.10;23.71;99438.66;5102481;27;20977;-63
2021/08/20 08:55:23;;;;;;;12.02;4.60;;;;;;;34.54;22.54;99441.13;5105608;27;20737;-63
2021/08/20 08:58:05;;;;;;;9.68;4.40;;;;;;;34.00;22.50;99446.28;5106345;27;20395;-61
2021/08/20 09:00:44;;;;;;;14.57;4.55;;;;;;;33.61;23.36;99454.84;5079507;28;20417;-64
2021/08/20 09:03:24;;;;;;;15.32;5.50;;;;;;;31.32;26.13;99440.94;5068984;27;2265579;-65
2021/08/20 09:06:00;;;;;;;13.02;4.95;;;;;;;30.89;26.86;99443.94;5102454;27;1401086;-64
2021/08/20 09:08:38;;;;;;;17.55;4.72;;;;;;;30.32;27.98;99440.50;5079388;28;20401;-63
2021/08/20 09:11:25;;;;;;;11.80;5.13;;;;;;;30.47;27.45;99448.72;5105185;27;20947;-65
2021/08/20 09:14:04;;;;;;;10.10;5.03;;;;;;;30.48;28.46;99442.34;5147256;27;20380;-63
2021/08/20 09:16:44;;;;;;;11.15;4.57;;;;;;;29.96;28.80;99442.69;5103927;27;20717;-64
2021/08/20 09:19:23;;;;;;;14.60;5.53;;;;;;;29.23;28.62;99437.97;5090623;27;20392;-63
2021/08/20 09:22:11;;;;;;;14.90;4.95;;;;;;;29.28;29.10;99445.56;5107062;27;20899;-62
2021/08/20 09:24:49;;;;;;;17.10;5.72;;;;;;;28.80;29.67;99438.91;5126070;27;20120;-65
2021/08/20 09:27:28;;;;;;;18.88;4.90;;;;;;;28.83;31.54;99461.97;5075732;28;20176;-64
2021/08/20 09:30:14;;;;;;;15.65;4.47;;;;;;;28.74;31.03;99461.09;5050256;28;20377;-64
2021/08/20 09:32:55;;;;;;;11.00;5.22;;;;;;;28.27;30.52;99455.25;5135874;27;20385;-65
2021/08/20 09:35:38;;;;;;;11.93;5.13;;;;;;;28.15;31.49;99447.38;5037327;27;2213180;-65
2021/08/20 09:38:16;;;;;;;12.35;5.35;;;;;;;27.63;32.11;99461.69;5075429;27;20795;-64
2021/08/20 09:41:01;;;;;;;14.05;5.05;;;;;;;27.61;31.68;99461.00;5143380;27;20599;-65
2021/08/20 09:43:40;;;;;;;10.98;5.38;;;;;;;27.13;32.76;99464.78;5063992;27;20395;-66
2021/08/20 09:46:19;;;;;;;11.07;5.30;;;;;;;26.91;33.58;99449.88;5128638;27;20894;-63
2021/08/20 09:49:00;;;;;;;12.95;5.60;;;;;;;26.79;34.13;99461.81;5137622;27;20397;-64
2021/08/20 09:51:48;;;;;;;15.35;5.38;;;;;;;26.80;33.37;99448.25;5106228;27;20881;-66
2021/08/20 09:54:26;;;;;;;8.75;5.07;;;;;;;26.85;33.87;99453.16;5113442;27;20953;-66
2021/08/20 09:57:04;;;;;;;14.38;5.30;;;;;;;26.67;32.84;99449.53;5143474;27;20172;-65
2021/08/20 09:59:41;;;;;;;10.60;6.03;;;;;;;26.67;33.10;99462.94;5053788;27;2077625;-65
2021/08/20 10:02:25;;;;;;;14.27;5.07;;;;;;;26.49;33.66;99447.63;5048950;28;20919;-67
2021/08/20 10:05:03;;;;;;;8.55;4.60;;;;;;;26.57;33.69;99444.19;5069618;27;20474;-65
2021/08/20 10:07:41;;;;;;;11.55;5.13;;;;;;;26.91;33.39;99461.47;5061833;28;20924;-68
2021/08/20 10:10:20;;;;;;;12.90;4.53;;;;;;;26.58;33.66;99443.22;5053267;28;20382;-64
2021/08/20 10:12:58;;;;;;;24.13;5.55;;;;;;;26.58;33.52;99451.25;5099550;27;20747;-66
2021/08/20 10:15:36;;;;;;;11.93;4.53;;;;;;;26.56;33.66;99443.34;5093418;27;20405;-65
2021/08/20 10:18:06;;;;;;;11.80;4.80;;;;;;;26.51;34.06;99417.97;5091201;28;20032;-64
2021/08/20 10:20:35;;;;;;;16.65;5.70;;;;;;;26.80;34.22;99433.97;5093029;28;20088;-63
2021/08/20 10:23:02;;;;;;;11.52;4.93;;;;;;;26.87;33.47;99427.03;5086653;28;20044;-66
2021/08/20 10:25:30;;;;;;;23.17;5.10;;;;;;;26.74;33.82;99413.91;5085265;28;20044;-64
2021/08/20 10:27:56;;;;;;;12.90;5.47;;;;;;;26.70;33.90;99404.47;5086658;28;20047;-65
2021/08/20 10:30:22;;;;;;;16.17;5.50;;;;;;;26.60;34.12;99411.72;5082978;28;20089;-64
2021/08/20 10:33:04;;;;;;;11.35;5.32;;;;;;;26.66;34.01;99412.97;5090542;28;20047;-64
2021/08/20 10:35:52;;;;;;;15.40;4.93;;;;;;;26.68;34.33;99422.56;5105117;28;20079;-64
2021/08/20 10:38:35;;;;;;;12.18;5.30;;;;;;;26.55;33.57;99422.03;5101867;28;20062;-62
2021/08/20 10:41:21;;;;;;;12.77;5.07;;;;;;;26.42;34.05;99425.03;5085244;28;20036;-65
2021/08/20 10:44:12;;;;;;;14.82;5.53;;;;;;;26.53;34.16;99424.88;5106627;27;20753;-64
2021/08/20 10:46:55;;;;;;;13.55;4.95;;;;;;;26.59;34.22;99429.66;5106688;27;20773;-65
2021/08/20 10:49:37;;;;;;;15.50;5.05;;;;;;;26.56;34.37;99419.22;5066320;28;20799;-63
2021/08/20 10:52:27;;;;;;;17.77;5.47;;;;;;;26.74;34.73;99440.75;5143993;27;20382;-64
2021/08/20 10:55:09;;;;;;;17.33;5.35;;;;;;;26.39;34.71;99435.22;5104259;27;20388;-63
2021/08/20 10:57:50;;;;;;;9.90;4.82;;;;;;;26.41;34.68;99438.59;5104864;27;20403;-65
2021/08/20 11:00:54;;;;;;;15.40;5.10;;;;;;;26.52;34.40;99435.75;5078108;28;20383;-63
2021/08/20 11:03:40;;;;;;;14.15;5.35;;;;;;;26.46;35.15;99426.44;5106476;27;20384;-63
2021/08/20 11:06:46;;;;;;;18.50;4.78;;;;;;;26.58;34.70;99417.22;5084571;27;20768;-63
2021/08/20 11:09:31;;;;;;;8.73;4.72;;;;;;;26.46;35.18;99404.97;5080311;27;1398843;-63
2021/08/20 11:12:09;;;;;;;12.13;5.32;;;;;;;26.19;34.88;99423.66;5065018;28;20740;-65
2021/08/20 11:14:47;;;;;;;11.73;4.70;;;;;;;26.03;35.27;99421.56;5080579;28;20941;-64
2021/08/20 11:17:51;;;;;;;14.18;5.80;;;;;;;26.08;35.24;99419.31;5105567;27;20497;-65
2021/08/20 11:20:42;;;;;;;11.45;5.05;;;;;;;25.92;33.59;99405.63;5104830;27;20396;-64
2021/08/20 11:23:31;;;;;;;13.05;4.75;;;;;;;25.98;34.85;99410.41;5105125;28;20078;-65
2021/08/20 11:26:28;;;;;;;12.25;4.10;;;;;;;26.02;34.35;99417.22;5103286;27;20376;-64
2021/08/20 11:29:09;;;;;;;13.63;4.82;;;;;;;25.87;33.04;99403.38;5145958;27;20405;-65
2021/08/20 11:31:48;;;;;;;8.57;3.80;;;;;;;26.00;33.15;99415.63;5118941;27;20385;-63
2021/08/20 11:34:14;;;;;;;7.35;4.22;;;;;;;25.96;32.73;99390.94;5082935;28;20547;-65
2021/08/20 11:36:44;;;;;;;7.60;4.32;;;;;;;25.98;32.29;99388.97;5099170;28;20102;-64
2021/08/20 11:39:13;;;;;;;12.02;4.25;;;;;;;26.03;32.62;99399.28;5096656;28;20520;-65
2021/08/20 11:41:44;;;;;;;9.43;4.40;;;;;;;26.22;32.85;99410.81;5064923;28;20591;-65
2021/08/20 11:44:12;;;;;;;9.32;4.43;;;;;;;26.22;32.40;99389.38;5062596;28;20067;-64
2021/08/20 11:46:48;;;;;;;12.23;4.07;;;;;;;26.33;32.55;99414.34;5080182;28;20456;-64
2021/08/20 11:49:26;;;;;;;11.15;4.93;;;;;;;26.29;32.46;99411.94;5063757;28;20115;-65
2021/08/20 11:51:52;;;;;;;13.02;4.60;;;;;;;26.32;32.90;99420.66;5096690;28;20113;-64
2021/08/20 11:54:18;;;;;;;7.50;4.40;;;;;;;26.37;33.52;99405.03;5086916;28;20079;-66
2021/08/20 11:56:52;;;;;;;14.95;4.40;;;;;;;26.34;33.46;99397.25;5049981;28;20125;-65
2021/08/20 11:59:18;;;;;;;11.23;4.18;;;;;;;26.31;33.67;99400.22;5084633;28;20127;-64
2021/08/20 12:01:44;;;;;;;15.43;4.78;;;;;;;26.34;33.32;99416.88;5085348;28;20564;-65
2021/08/20 12:04:10;;;;;;;10.80;4.47;;;;;;;26.27;33.71;99413.91;5083613;28;20135;-65
2021/08/20 12:07:26;;;;;;;6.65;4.15;;;;;;;26.11;34.65;99421.69;5066404;28;20059;-63
2021/08/20 12:10:00;;;;;;;11.10;4.15;;;;;;;26.24;34.48;99416.03;5045693;28;20132;-66
2021/08/20 12:12:27;;;;;;;7.97;4.57;;;;;;;26.23;34.21;99417.88;5098003;28;20052;-66
2021/08/20 12:14:53;;;;;;;11.88;4.57;;;;;;;26.07;34.57;99398.84;5063024;28;20045;-65
2021/08/20 12:17:28;;;;;;;8.93;4.22;;;;;;;26.08;34.64;99416.63;5060480;28;20079;-65
2021/08/20 12:19:56;;;;;;;11.35;4.28;;;;;;;26.09;35.04;99420.16;5082683;28;20040;-64